createdAt,value
2022-08-28T00:00:33.000Z,2.20
2022-08-28T00:03:01.438Z,2.08
2022-08-28T00:05:31.783Z,1.90
2022-08-28T00:08:00.151Z,2.45
2022-08-28T00:10:29.213Z,2.10
2022-08-28T00:12:58.308Z,2.03
2022-08-28T00:17:55.369Z,2.15
2022-08-28T00:20:24.718Z,1.42
2022-08-28T00:22:52.932Z,1.58
2022-08-28T00:25:24.304Z,2.65
2022-08-28T00:27:55.292Z,2.38
2022-08-28T00:30:36.783Z,1.17
2022-08-28T00:33:14.507Z,3.15
2022-08-28T00:35:43.388Z,1.63
2022-08-28T00:38:12.849Z,1.80
2022-08-28T00:40:44.721Z,1.90
2022-08-28T00:43:40.330Z,2.00
2022-08-28T00:46:15.071Z,2.30
2022-08-28T00:48:43.104Z,2.30
2022-08-28T00:51:30.744Z,1.88
2022-08-28T00:54:00.660Z,2.65
2022-08-28T00:56:30.518Z,1.88
2022-08-28T00:59:03.663Z,1.73
2022-08-28T01:01:31.707Z,1.77
2022-08-28T01:03:59.552Z,1.88
2022-08-28T01:06:27.266Z,2.60
2022-08-28T01:08:54.823Z,1.65
2022-08-28T01:11:23.757Z,2.28
2022-08-28T01:16:23.558Z,2.15
2022-08-28T01:19:00.774Z,1.90
2022-08-28T01:24:02.170Z,2.22
2022-08-28T01:26:30.422Z,1.90
2022-08-28T01:28:59.408Z,1.90
2022-08-28T01:33:56.669Z,2.22
2022-08-28T01:36:24.517Z,2.05
2022-08-28T01:39:01.127Z,2.00
2022-08-28T01:41:29.662Z,1.80
2022-08-28T01:43:57.763Z,2.05
2022-08-28T01:46:25.523Z,2.80
2022-08-28T01:48:53.124Z,2.03
2022-08-28T01:51:24.511Z,2.10
2022-08-28T01:53:52.687Z,2.05
2022-08-28T01:56:20.417Z,2.00
2022-08-28T01:58:50.844Z,3.35
2022-08-28T02:01:21.153Z,1.63
2022-08-28T02:03:49.306Z,1.98
2022-08-28T02:06:18.273Z,1.73
2022-08-28T02:11:15.989Z,1.80
2022-08-28T02:13:44.878Z,1.80
2022-08-28T02:16:12.987Z,1.63
2022-08-28T02:18:41.319Z,1.52
2022-08-28T02:21:10.504Z,2.15
2022-08-28T02:23:40.954Z,1.63
2022-08-28T02:26:09.467Z,1.92
2022-08-28T02:28:38.016Z,2.17
2022-08-28T02:31:09.427Z,1.70
2022-08-28T02:33:46.442Z,1.85
2022-08-28T02:36:15.485Z,2.10
2022-08-28T02:41:12.453Z,2.63
2022-08-28T02:43:40.725Z,2.13
2022-08-28T02:46:08.960Z,1.98
2022-08-28T02:48:38.724Z,3.17
2022-08-28T02:51:09.953Z,2.00
2022-08-28T02:53:39.211Z,2.13
2022-08-28T02:56:07.914Z,1.80
2022-08-28T02:58:36.438Z,2.28
2022-08-28T03:01:07.396Z,2.50
2022-08-28T03:03:35.548Z,2.17
2022-08-28T03:06:04.966Z,2.85
2022-08-28T03:08:33.247Z,1.57
2022-08-28T03:11:01.174Z,2.10
2022-08-28T03:13:30.209Z,2.15
2022-08-28T03:15:58.708Z,2.05
2022-08-28T03:18:30.342Z,1.65
2022-08-28T03:20:59.940Z,2.28
2022-08-28T03:23:27.940Z,2.13
2022-08-28T03:26:14.685Z,2.23
2022-08-28T03:28:45.388Z,2.33
2022-08-28T03:31:16.453Z,2.17
2022-08-28T03:33:45.143Z,3.22
2022-08-28T03:36:15.740Z,2.38
2022-08-28T03:38:43.784Z,2.35
2022-08-28T03:41:17.794Z,2.20
2022-08-28T03:43:45.942Z,2.53
2022-08-28T03:46:16.969Z,2.25
2022-08-28T03:48:45.473Z,2.45
2022-08-28T03:51:16.190Z,2.58
2022-08-28T03:53:45.943Z,2.50
2022-08-28T03:56:17.517Z,2.42
2022-08-28T03:58:45.396Z,2.13
2022-08-28T04:01:13.096Z,2.55
2022-08-28T04:03:41.133Z,3.47
2022-08-28T04:06:08.828Z,2.90
2022-08-28T04:08:37.625Z,2.40
2022-08-28T04:11:05.776Z,3.22
2022-08-28T04:13:33.570Z,3.23
2022-08-28T04:16:10.853Z,3.05
2022-08-28T04:18:40.812Z,3.30
2022-08-28T04:21:12.338Z,3.13
2022-08-28T04:23:45.132Z,2.70
2022-08-28T04:26:15.805Z,3.90
2022-08-28T04:28:44.030Z,3.63
2022-08-28T04:31:11.727Z,3.60
2022-08-28T04:33:40.498Z,3.28
2022-08-28T04:36:14.833Z,2.90
2022-08-28T04:38:44.050Z,3.28
2022-08-28T04:41:14.492Z,3.53
2022-08-28T04:43:43.666Z,3.20
2022-08-28T04:46:13.589Z,4.18
2022-08-28T04:48:42.125Z,2.90
2022-08-28T04:51:11.299Z,3.33
2022-08-28T04:53:39.717Z,4.25
2022-08-28T04:56:11.030Z,2.92
2022-08-28T04:58:40.249Z,3.10
2022-08-28T05:01:11.349Z,3.05
2022-08-28T05:03:40.078Z,3.80
2022-08-28T05:06:08.322Z,3.13
2022-08-28T05:08:36.191Z,3.00
2022-08-28T05:11:33.066Z,4.13
2022-08-28T05:14:05.717Z,3.45
2022-08-28T05:16:39.418Z,3.25
2022-08-28T05:19:07.112Z,3.75
2022-08-28T05:21:34.858Z,3.67
2022-08-28T05:24:04.731Z,4.32
2022-08-28T05:26:34.036Z,3.40
2022-08-28T05:29:03.287Z,4.07
2022-08-28T05:31:31.852Z,3.83
2022-08-28T05:34:00.962Z,3.78
2022-08-28T05:39:03.217Z,3.50
2022-08-28T05:41:31.264Z,3.90
2022-08-28T05:44:03.010Z,3.80
2022-08-28T05:46:31.267Z,4.55
2022-08-28T05:49:00.607Z,2.90
2022-08-28T05:51:28.747Z,4.45
2022-08-28T05:53:57.889Z,3.93
2022-08-28T05:56:29.994Z,3.25
2022-08-28T05:59:00.181Z,3.95
2022-08-28T06:01:30.512Z,3.92
2022-08-28T06:03:59.841Z,3.92
2022-08-28T06:06:30.208Z,3.55
2022-08-28T06:09:00.114Z,3.13
2022-08-28T06:11:31.044Z,3.60
2022-08-28T06:14:02.466Z,3.55
2022-08-28T06:16:32.426Z,3.60
2022-08-28T06:19:00.794Z,2.95
2022-08-28T06:21:29.927Z,3.50
2022-08-28T06:26:25.386Z,3.05
2022-08-28T06:28:53.703Z,2.80
2022-08-28T06:31:23.739Z,3.22
2022-08-28T06:33:54.463Z,2.75
2022-08-28T06:36:23.008Z,2.88
2022-08-28T06:38:51.340Z,3.08
2022-08-28T06:41:19.915Z,3.45
2022-08-28T06:43:47.996Z,2.80
2022-08-28T06:46:16.244Z,2.90
2022-08-28T06:48:44.039Z,2.63
2022-08-28T06:51:12.996Z,3.00
2022-08-28T06:56:25.698Z,3.88
2022-08-28T06:58:56.904Z,2.97
2022-08-28T07:01:29.589Z,2.92
2022-08-28T07:04:01.025Z,4.03
2022-08-28T07:06:32.569Z,2.75
2022-08-28T07:09:00.723Z,2.97
2022-08-28T07:11:31.565Z,2.67
2022-08-28T07:14:00.038Z,2.65
2022-08-28T07:16:38.291Z,2.80
2022-08-28T07:19:07.875Z,2.10
2022-08-28T07:21:41.847Z,2.30
2022-08-28T07:24:11.528Z,2.70
2022-08-28T07:26:41.221Z,2.88
2022-08-28T07:29:10.835Z,2.63
2022-08-28T07:31:42.597Z,2.40
2022-08-28T07:34:12.755Z,2.30
2022-08-28T07:36:41.656Z,3.38
2022-08-28T07:39:11.251Z,2.72
2022-08-28T07:41:42.566Z,2.28
2022-08-28T07:44:31.230Z,2.90
2022-08-28T07:47:02.277Z,2.08
2022-08-28T07:49:31.519Z,2.38
2022-08-28T07:51:59.268Z,2.00
2022-08-28T07:54:27.283Z,1.73
2022-08-28T07:56:55.205Z,3.57
2022-08-28T07:59:22.983Z,2.58
2022-08-28T08:01:52.227Z,1.40
2022-08-28T08:04:21.300Z,1.40
2022-08-28T08:09:22.329Z,1.70
2022-08-28T08:11:49.976Z,2.00
2022-08-28T08:14:18.809Z,1.67
2022-08-28T08:16:47.463Z,1.45
2022-08-28T08:19:16.614Z,1.27
2022-08-28T08:21:46.341Z,1.40
2022-08-28T08:24:20.647Z,1.80
2022-08-28T08:26:59.610Z,1.80
2022-08-28T08:32:02.772Z,2.00
2022-08-28T08:34:30.953Z,1.23
2022-08-28T08:36:58.701Z,1.60
2022-08-28T08:39:26.543Z,1.85
2022-08-28T08:41:58.268Z,1.92
2022-08-28T08:44:38.811Z,1.73
2022-08-28T08:47:14.788Z,1.30
2022-08-28T08:49:58.794Z,1.50
2022-08-28T08:52:35.327Z,0.95
2022-08-28T08:55:26.085Z,0.93
2022-08-28T08:58:00.123Z,1.35
2022-08-28T09:00:31.541Z,1.08
2022-08-28T09:03:06.331Z,1.50
2022-08-28T09:05:56.989Z,1.88
2022-08-28T09:08:36.892Z,2.78
2022-08-28T09:11:22.928Z,1.00
2022-08-28T09:14:19.565Z,1.33
2022-08-28T09:16:48.577Z,1.08
2022-08-28T09:19:20.413Z,0.93
2022-08-28T09:21:51.501Z,1.30
2022-08-28T09:24:22.700Z,0.90
2022-08-28T09:26:53.916Z,0.75
2022-08-28T09:29:39.386Z,0.98
2022-08-28T09:32:25.415Z,1.20
2022-08-28T09:35:23.263Z,0.85
2022-08-28T09:37:51.553Z,0.70
2022-08-28T09:40:57.530Z,0.82
2022-08-28T09:43:28.539Z,1.33
2022-08-28T09:46:04.573Z,0.88
2022-08-28T09:48:35.868Z,0.80
2022-08-28T09:51:23.797Z,0.68
2022-08-28T09:53:57.348Z,1.33
2022-08-28T09:56:33.558Z,0.82
2022-08-28T09:59:07.540Z,0.68
2022-08-28T10:01:53.983Z,1.15
2022-08-28T10:04:33.916Z,0.90
2022-08-28T10:07:24.524Z,0.60
2022-08-28T10:10:30.451Z,1.02
2022-08-28T10:13:03.014Z,0.90
2022-08-28T10:16:09.776Z,1.20
2022-08-28T10:18:50.521Z,0.82
2022-08-28T10:21:31.722Z,0.73
2022-08-28T10:24:08.667Z,0.60
2022-08-28T10:27:21.390Z,0.80
2022-08-28T10:29:53.195Z,0.60
2022-08-28T10:32:20.798Z,0.88
2022-08-28T10:35:07.453Z,0.63
2022-08-28T10:38:11.749Z,0.63
2022-08-28T10:40:53.559Z,0.90
2022-08-28T10:43:39.555Z,0.90
2022-08-28T10:46:15.389Z,1.00
2022-08-28T10:48:46.816Z,1.10
2022-08-28T10:51:34.911Z,0.93
2022-08-28T10:56:45.416Z,1.00
2022-08-28T10:59:20.566Z,1.58
2022-08-28T11:01:48.593Z,0.73
2022-08-28T11:04:25.099Z,1.10
2022-08-28T11:06:57.436Z,1.05
2022-08-28T11:09:39.459Z,1.55
2022-08-28T11:12:16.430Z,1.15
2022-08-28T11:14:48.315Z,1.05
2022-08-28T11:17:22.297Z,0.70
2022-08-28T11:20:08.946Z,0.75
2022-08-28T11:22:51.662Z,0.60
2022-08-28T11:25:26.624Z,0.70
2022-08-28T11:28:27.610Z,0.95
2022-08-28T11:31:01.361Z,1.10
2022-08-28T11:33:48.970Z,1.50
2022-08-28T11:36:22.407Z,0.90
2022-08-28T11:38:55.794Z,0.90
2022-08-28T11:41:36.938Z,0.90
2022-08-28T11:44:13.284Z,1.10
2022-08-28T11:46:49.737Z,0.93
2022-08-28T11:49:26.672Z,0.63
2022-08-28T11:52:29.749Z,0.77
2022-08-28T11:55:07.504Z,0.95
2022-08-28T11:57:53.051Z,0.77
2022-08-28T12:00:31.575Z,0.98
2022-08-28T12:03:12.674Z,0.82
2022-08-28T12:05:46.914Z,0.70
2022-08-28T12:08:51.357Z,0.77
2022-08-28T12:11:40.939Z,2.20
2022-08-28T12:14:31.743Z,1.30
2022-08-28T12:16:59.313Z,0.95
2022-08-28T12:19:51.241Z,0.85
2022-08-28T12:22:39.895Z,1.50
2022-08-28T12:25:25.534Z,1.08
2022-08-28T12:27:53.852Z,0.80
2022-08-28T12:30:36.200Z,1.02
2022-08-28T12:33:20.780Z,0.65
2022-08-28T12:35:50.000Z,0.63
2022-08-28T12:38:22.442Z,0.70
2022-08-28T12:40:52.848Z,0.95
2022-08-28T12:43:35.883Z,0.50
2022-08-28T12:46:23.370Z,0.90
2022-08-28T12:48:59.703Z,0.98
2022-08-28T12:51:28.985Z,1.00
2022-08-28T12:53:59.325Z,1.10
2022-08-28T12:56:34.170Z,0.60
2022-08-28T12:59:42.136Z,0.70
2022-08-28T13:02:28.963Z,0.60
2022-08-28T13:05:05.669Z,0.50
2022-08-28T13:07:47.542Z,1.27
2022-08-28T13:10:47.395Z,1.10
2022-08-28T13:13:29.552Z,0.52
2022-08-28T13:16:04.730Z,0.60
2022-08-28T13:19:06.775Z,0.70
2022-08-28T13:21:52.118Z,0.80
2022-08-28T13:24:26.213Z,0.63
2022-08-28T13:27:21.564Z,0.57
2022-08-28T13:30:00.121Z,0.75
2022-08-28T13:32:32.762Z,0.80
2022-08-28T13:35:09.158Z,0.68
2022-08-28T13:37:43.842Z,0.73
2022-08-28T13:40:25.658Z,1.08
2022-08-28T13:43:07.155Z,0.88
2022-08-28T13:45:43.094Z,0.52
2022-08-28T13:48:13.958Z,0.68
2022-08-28T13:50:47.222Z,0.52
2022-08-28T13:53:16.754Z,0.63
2022-08-28T13:55:45.482Z,0.55
2022-08-28T14:00:45.224Z,0.75
2022-08-28T14:03:31.406Z,0.50
2022-08-28T14:05:59.104Z,0.90
2022-08-28T14:08:26.770Z,0.80
2022-08-28T14:10:54.471Z,1.08
2022-08-28T14:13:23.545Z,0.65
2022-08-28T14:15:51.137Z,0.60
2022-08-28T14:18:18.714Z,0.98
2022-08-28T14:20:46.393Z,0.65
2022-08-28T14:23:14.198Z,0.52
2022-08-28T14:25:47.531Z,0.80
2022-08-28T14:28:16.514Z,0.60
2022-08-28T14:30:45.644Z,1.40
2022-08-28T14:33:16.779Z,0.70
2022-08-28T14:35:45.800Z,0.93
2022-08-28T14:38:14.335Z,1.15
2022-08-28T14:40:44.188Z,0.47
2022-08-28T14:43:13.680Z,1.40
2022-08-28T14:45:46.480Z,0.60
2022-08-28T14:48:14.955Z,0.75
2022-08-28T14:50:45.729Z,0.60
2022-08-28T14:53:14.123Z,1.60
2022-08-28T14:55:43.942Z,0.60
2022-08-28T14:58:12.693Z,0.80
2022-08-28T15:00:49.518Z,0.63
2022-08-28T15:03:19.339Z,1.05
2022-08-28T15:05:47.267Z,0.90
2022-08-28T15:08:16.893Z,0.80
2022-08-28T15:10:45.377Z,0.60
2022-08-28T15:13:13.300Z,0.90
2022-08-28T15:15:43.078Z,0.82
2022-08-28T15:18:11.358Z,1.00
2022-08-28T15:20:46.719Z,0.90
2022-08-28T15:23:15.501Z,1.15
2022-08-28T15:25:43.292Z,0.60
2022-08-28T15:28:12.638Z,1.13
2022-08-28T15:30:41.877Z,0.50
2022-08-28T15:33:09.479Z,0.45
2022-08-28T15:35:37.258Z,0.90
2022-08-28T15:38:05.663Z,0.80
2022-08-28T15:40:52.961Z,1.10
2022-08-28T15:45:50.070Z,0.50
2022-08-28T15:48:17.922Z,0.50
2022-08-28T15:50:45.562Z,0.77
2022-08-28T15:53:13.337Z,0.77
2022-08-28T15:55:41.481Z,0.50
2022-08-28T15:58:13.832Z,0.75
2022-08-28T16:00:42.520Z,0.70
2022-08-28T16:03:10.488Z,0.60
2022-08-28T16:05:40.958Z,0.98
2022-08-28T16:08:10.469Z,0.60
2022-08-28T16:10:39.107Z,0.70
2022-08-28T16:15:35.324Z,0.52
2022-08-28T16:18:03.307Z,0.68
2022-08-28T16:20:31.113Z,0.97
2022-08-28T16:22:59.087Z,0.90
2022-08-28T16:25:26.751Z,0.90
2022-08-28T16:27:55.017Z,0.73
2022-08-28T16:30:24.323Z,0.85
2022-08-28T16:32:54.181Z,0.80
2022-08-28T16:35:22.047Z,0.80
2022-08-28T16:37:50.080Z,0.80
2022-08-28T16:40:17.897Z,0.70
2022-08-28T16:42:51.356Z,0.55
2022-08-28T16:45:20.472Z,0.70
2022-08-28T16:47:49.286Z,0.90
2022-08-28T16:50:20.906Z,1.00
2022-08-28T16:52:49.770Z,0.63
2022-08-28T16:57:46.112Z,0.90
2022-08-28T17:00:14.292Z,0.70
2022-08-28T17:02:43.415Z,1.08
2022-08-28T17:07:40.180Z,1.52
2022-08-28T17:10:09.488Z,0.87
2022-08-28T17:12:37.247Z,1.27
2022-08-28T17:15:06.721Z,0.93
2022-08-28T17:17:34.802Z,1.05
2022-08-28T17:20:03.749Z,1.25
2022-08-28T17:22:32.187Z,1.38
2022-08-28T17:25:14.126Z,1.33
2022-08-28T17:27:42.177Z,1.10
2022-08-28T17:30:10.600Z,1.20
2022-08-28T17:32:40.737Z,1.23
2022-08-28T17:35:13.006Z,1.00
2022-08-28T17:37:41.364Z,0.95
2022-08-28T17:40:12.536Z,1.48
2022-08-28T17:42:40.638Z,0.80
2022-08-28T17:45:08.893Z,1.10
2022-08-28T17:47:36.554Z,1.33
2022-08-28T17:50:06.095Z,1.23
2022-08-28T17:52:34.276Z,0.80
2022-08-28T17:55:02.370Z,1.03
2022-08-28T17:57:30.703Z,1.20
2022-08-28T18:00:00.030Z,0.88
2022-08-28T18:02:28.510Z,1.17
2022-08-28T18:04:56.191Z,1.20
2022-08-28T18:07:23.830Z,0.90
2022-08-28T18:09:51.497Z,1.15
2022-08-28T18:12:19.804Z,1.65
2022-08-28T18:14:47.571Z,1.83
2022-08-28T18:17:16.285Z,1.50
2022-08-28T18:19:44.012Z,1.27
2022-08-28T18:22:13.568Z,1.33
2022-08-28T18:24:41.879Z,0.93
2022-08-28T18:27:09.577Z,1.17
2022-08-28T18:29:39.454Z,1.15
2022-08-28T18:32:07.905Z,1.20
2022-08-28T18:34:40.073Z,1.42
2022-08-28T18:37:08.214Z,0.77
2022-08-28T18:39:42.313Z,1.65
2022-08-28T18:42:12.649Z,1.35
2022-08-28T18:44:40.492Z,1.13
2022-08-28T18:47:09.398Z,1.15
2022-08-28T18:52:04.852Z,1.42
2022-08-28T18:54:32.572Z,1.40
2022-08-28T18:57:04.214Z,1.60
2022-08-28T18:59:33.952Z,1.20
2022-08-28T19:02:02.010Z,1.30
2022-08-28T19:04:29.723Z,2.90
2022-08-28T19:06:57.295Z,1.77
2022-08-28T19:09:31.743Z,2.03
2022-08-28T19:12:00.713Z,1.77
2022-08-28T19:14:28.628Z,1.63
2022-08-28T19:16:57.603Z,2.10
2022-08-28T19:19:26.430Z,2.88
2022-08-28T19:21:55.117Z,2.83
2022-08-28T19:24:24.381Z,3.50
2022-08-28T19:26:52.010Z,4.27
2022-08-28T19:29:19.758Z,4.72
2022-08-28T19:31:47.498Z,4.70
2022-08-28T19:34:15.138Z,4.28
2022-08-28T19:36:42.827Z,4.45
2022-08-28T19:39:10.740Z,4.00
2022-08-28T19:41:38.820Z,3.95
2022-08-28T19:44:06.935Z,4.72
2022-08-28T19:46:36.698Z,4.53
2022-08-28T19:49:05.862Z,4.35
2022-08-28T19:51:35.736Z,4.93
2022-08-28T19:54:03.843Z,5.00
2022-08-28T19:56:33.428Z,4.60
2022-08-28T19:59:03.070Z,5.20
2022-08-28T20:01:33.708Z,5.15
2022-08-28T20:04:05.096Z,4.18
2022-08-28T20:06:36.843Z,4.65
2022-08-28T20:09:10.687Z,3.80
2022-08-28T20:11:42.330Z,3.67
2022-08-28T20:14:10.549Z,3.90
2022-08-28T20:16:43.860Z,3.60
2022-08-28T20:19:12.835Z,3.85
2022-08-28T20:24:11.996Z,2.88
2022-08-28T20:26:39.818Z,3.30
2022-08-28T20:29:08.578Z,4.22
2022-08-28T20:31:41.023Z,3.33
2022-08-28T20:34:13.424Z,3.60
2022-08-28T20:36:43.669Z,2.97
2022-08-28T20:39:13.508Z,3.13
2022-08-28T20:41:42.975Z,3.47
2022-08-28T20:44:16.818Z,4.03
2022-08-28T20:46:51.205Z,3.85
2022-08-28T20:49:22.108Z,4.22
2022-08-28T20:51:55.060Z,4.20
2022-08-28T20:54:29.891Z,3.88
2022-08-28T20:57:00.131Z,3.70
2022-08-28T20:59:34.395Z,4.38
2022-08-28T21:02:17.275Z,3.67
2022-08-28T21:05:20.720Z,3.88
2022-08-28T21:07:54.420Z,4.25
2022-08-28T21:10:27.042Z,4.35
2022-08-28T21:12:55.214Z,3.40
2022-08-28T21:15:24.422Z,4.53
2022-08-28T21:17:54.260Z,3.20
2022-08-28T21:20:23.955Z,2.83
2022-08-28T21:22:59.751Z,2.55
2022-08-28T21:25:30.063Z,2.72
2022-08-28T21:27:57.801Z,2.30
2022-08-28T21:30:29.906Z,2.65
2022-08-28T21:32:58.020Z,2.83
2022-08-28T21:35:25.987Z,2.73
2022-08-28T21:37:53.664Z,2.80
2022-08-28T21:40:21.393Z,2.95
2022-08-28T21:42:49.140Z,2.80
2022-08-28T21:45:17.991Z,2.92
2022-08-28T21:47:45.514Z,3.13
2022-08-28T21:50:13.555Z,3.58
2022-08-28T21:52:41.573Z,3.28
2022-08-28T21:55:12.972Z,3.77
2022-08-28T21:57:41.010Z,4.47
2022-08-28T22:00:13.474Z,3.88
2022-08-28T22:02:41.204Z,3.75
2022-08-28T22:05:09.559Z,3.97
2022-08-28T22:07:37.360Z,3.88
2022-08-28T22:10:05.671Z,4.03
2022-08-28T22:12:33.520Z,3.70
2022-08-28T22:15:01.532Z,4.53
2022-08-28T22:17:29.688Z,4.70
2022-08-28T22:19:57.259Z,5.53
2022-08-28T22:22:43.545Z,4.97
2022-08-28T22:25:11.442Z,5.20
2022-08-28T22:27:39.275Z,4.88
2022-08-28T22:30:07.537Z,4.60
2022-08-28T22:32:35.202Z,5.22
2022-08-28T22:35:03.022Z,4.18
2022-08-28T22:37:30.611Z,4.38
2022-08-28T22:39:59.248Z,4.47
2022-08-28T22:42:27.058Z,4.72
2022-08-28T22:44:54.833Z,4.43
2022-08-28T22:47:22.486Z,3.92
2022-08-28T22:49:50.185Z,5.78
2022-08-28T22:52:17.804Z,5.28
2022-08-28T22:54:45.812Z,4.65
2022-08-28T22:57:14.493Z,5.03
2022-08-28T22:59:42.242Z,5.22
2022-08-28T23:02:10.067Z,5.18
2022-08-28T23:04:38.506Z,5.53
2022-08-28T23:07:06.916Z,5.75
2022-08-28T23:09:36.054Z,5.80
2022-08-28T23:12:07.920Z,5.18
2022-08-28T23:14:38.692Z,5.22
2022-08-28T23:17:06.580Z,5.45
2022-08-28T23:19:34.386Z,6.53
2022-08-28T23:22:02.079Z,5.95
2022-08-28T23:24:31.248Z,5.18
2022-08-28T23:27:13.988Z,5.07
2022-08-28T23:29:46.598Z,6.50
2022-08-28T23:32:21.072Z,7.03
2022-08-28T23:34:49.318Z,5.35
2022-08-28T23:37:17.542Z,5.78
2022-08-28T23:39:45.209Z,6.57
2022-08-28T23:42:14.294Z,6.38
2022-08-28T23:44:42.024Z,6.25
2022-08-28T23:47:10.306Z,6.10
2022-08-28T23:49:42.664Z,6.37
2022-08-28T23:52:10.896Z,6.32
2022-08-28T23:54:39.993Z,5.63
2022-08-28T23:59:38.617Z,4.68
